Time;durP1;ratioP1;P1;durP2;ratioP2;P2;SDS_P1;SDS_P2;PMS_P1;PMS_P2;Temp;Humidity;BMP_temperature;BMP_pressure;BME280_temperature;BME280_humidity;BME280_pressure;Samples;Min_cycle;Max_cycle;Signal;HPM_P1;HPM_P2
2024/02/28 00:02:10;;;;;;;24.48;11.38;;;2.80;99.90;;;;;;5057082;28;20487;-87
2024/02/28 00:04:35;;;;;;;22.35;10.02;;;2.80;99.90;;;;;;5056722;28;20583;-87
2024/02/28 00:07:01;;;;;;;25.25;10.93;;;2.80;99.90;;;;;;5075786;28;20024;-87
2024/02/28 00:09:27;;;;;;;22.42;10.07;;;2.80;99.90;;;;;;5071600;28;20366;-90
2024/02/28 00:11:52;;;;;;;23.20;10.05;;;2.80;99.90;;;;;;5049178;28;20485;-88
2024/02/28 00:14:18;;;;;;;26.13;11.13;;;2.80;99.90;;;;;;5056221;28;20054;-87
2024/02/28 00:16:45;;;;;;;24.80;11.15;;;2.80;99.90;;;;;;5054549;28;20028;-91
2024/02/28 00:19:12;;;;;;;23.38;9.55;;;2.90;99.90;;;;;;5072120;28;20392;-87
2024/02/28 00:21:38;;;;;;;21.58;10.13;;;2.90;99.90;;;;;;5061756;28;20521;-87
2024/02/28 00:24:04;;;;;;;21.80;8.07;;;2.80;99.90;;;;;;5051742;28;20376;-87
2024/02/28 00:26:30;;;;;;;19.83;8.63;;;2.80;99.90;;;;;;5052127;28;20021;-87
2024/02/28 00:28:56;;;;;;;18.65;7.90;;;2.80;99.90;;;;;;5068507;28;20429;-87
2024/02/28 00:31:22;;;;;;;18.80;8.35;;;2.70;99.90;;;;;;5038866;28;20028;-87
2024/02/28 00:33:48;;;;;;;18.75;9.15;;;2.70;99.90;;;;;;5055230;28;20052;-87
2024/02/28 00:36:15;;;;;;;19.20;9.48;;;2.70;99.90;;;;;;5038596;28;20154;-88
2024/02/28 00:38:41;;;;;;;25.05;8.20;;;2.70;99.90;;;;;;5038161;28;20021;-87
2024/02/28 00:41:06;;;;;;;24.50;8.57;;;2.70;99.90;;;;;;5042948;28;20032;-87
2024/02/28 00:43:32;;;;;;;17.55;8.68;;;2.70;99.90;;;;;;5057567;28;20021;-88
2024/02/28 00:45:58;;;;;;;27.55;8.30;;;2.70;99.90;;;;;;5040983;28;20027;-88
2024/02/28 00:48:25;;;;;;;16.60;7.90;;;2.70;99.90;;;;;;5073862;28;20102;-87
2024/02/28 00:50:51;;;;;;;17.13;7.80;;;2.60;99.90;;;;;;5053690;28;20035;-87
2024/02/28 00:53:17;;;;;;;23.35;7.80;;;2.60;99.90;;;;;;5039524;28;20065;-88
2024/02/28 00:55:43;;;;;;;16.60;8.07;;;2.60;99.90;;;;;;5038407;28;20037;-90
2024/02/28 00:58:09;;;;;;;21.52;7.97;;;2.60;99.90;;;;;;5055324;28;20032;-87
2024/02/28 01:00:35;;;;;;;20.10;8.40;;;2.60;99.90;;;;;;5060026;28;20133;-87
2024/02/28 01:03:03;;;;;;;18.48;9.15;;;2.60;99.90;;;;;;5052729;28;20035;-88
2024/02/28 01:05:29;;;;;;;20.70;7.65;;;2.60;99.90;;;;;;5072710;28;20028;-88
2024/02/28 01:07:55;;;;;;;22.23;8.25;;;2.70;99.90;;;;;;5057844;28;20021;-88
2024/02/28 01:10:21;;;;;;;20.75;7.30;;;2.60;99.90;;;;;;5052851;28;20051;-88
2024/02/28 01:12:47;;;;;;;13.85;6.95;;;2.60;99.90;;;;;;5036404;28;20048;-88
2024/02/28 01:15:13;;;;;;;18.92;8.52;;;2.60;99.90;;;;;;5040752;28;20055;-88
2024/02/28 01:17:39;;;;;;;11.80;6.07;;;2.40;99.90;;;;;;5072990;28;20472;-88
2024/02/28 01:20:08;;;;;;;15.55;6.63;;;2.50;99.90;;;;;;5046423;28;20114;-89
2024/02/28 01:22:35;;;;;;;14.07;7.45;;;2.40;99.90;;;;;;5054738;28;20024;-88
2024/02/28 01:25:02;;;;;;;18.17;8.13;;;2.40;99.90;;;;;;5041271;28;20035;-88
2024/02/28 01:27:28;;;;;;;17.85;7.50;;;2.40;99.90;;;;;;5069176;28;20032;-86
2024/02/28 01:29:54;;;;;;;17.52;7.75;;;2.40;99.90;;;;;;5037620;28;20056;-88
2024/02/28 01:32:20;;;;;;;17.67;7.75;;;2.50;99.90;;;;;;5054848;28;20068;-88
2024/02/28 01:34:46;;;;;;;17.20;7.40;;;2.50;99.90;;;;;;5038473;28;20020;-88
2024/02/28 01:37:12;;;;;;;16.40;7.13;;;2.50;99.90;;;;;;5072541;28;20544;-89
2024/02/28 01:39:40;;;;;;;18.05;7.35;;;2.50;99.90;;;;;;5057011;28;20178;-88
2024/02/28 01:42:06;;;;;;;12.50;6.35;;;2.60;99.90;;;;;;5056164;28;20039;-89
2024/02/28 01:44:37;;;;;;;13.43;6.80;;;2.60;99.90;;;;;;5052120;28;20384;-88
2024/02/28 01:47:03;;;;;;;14.32;6.63;;;2.60;99.90;;;;;;5054453;28;20123;-88
2024/02/28 01:49:29;;;;;;;22.48;7.97;;;2.50;99.90;;;;;;5055825;28;20028;-89
2024/02/28 01:51:56;;;;;;;17.65;8.32;;;2.50;99.90;;;;;;5054088;28;20089;-88
2024/02/28 01:54:22;;;;;;;16.02;8.35;;;2.50;99.90;;;;;;5047078;28;20186;-90
2024/02/28 01:56:48;;;;;;;13.82;6.78;;;2.50;99.90;;;;;;5054384;28;20047;-87
2024/02/28 01:59:16;;;;;;;16.10;8.38;;;2.60;99.90;;;;;;5055083;28;20067;-90
2024/02/28 02:01:42;;;;;;;17.40;8.18;;;2.60;99.90;;;;;;5052510;28;20021;-88
2024/02/28 02:04:08;;;;;;;19.13;8.10;;;2.60;99.90;;;;;;5070189;28;20129;-89
2024/02/28 02:06:37;;;;;;;19.85;8.55;;;2.60;99.90;;;;;;5038727;28;20075;-90
2024/02/28 02:09:03;;;;;;;18.77;8.40;;;2.60;99.90;;;;;;5053977;28;20032;-88
2024/02/28 02:11:28;;;;;;;17.30;8.15;;;2.60;99.90;;;;;;5035714;28;20047;-89
2024/02/28 02:13:54;;;;;;;19.13;8.07;;;2.60;99.90;;;;;;5035915;28;20035;-89
2024/02/28 02:16:26;;;;;;;19.67;9.15;;;2.70;99.90;;;;;;5036352;28;20109;-89
2024/02/28 02:18:51;;;;;;;20.45;9.27;;;2.70;99.90;;;;;;5050753;28;20029;-88
2024/02/28 02:21:24;;;;;;;21.35;9.50;;;2.70;99.90;;;;;;5039972;28;20078;-88
2024/02/28 02:23:50;;;;;;;22.13;9.27;;;2.70;99.90;;;;;;5038645;28;20446;-89
2024/02/28 02:26:16;;;;;;;21.40;9.40;;;2.70;99.90;;;;;;5053564;28;20108;-88
2024/02/28 02:28:41;;;;;;;18.92;8.82;;;2.70;99.90;;;;;;5054152;28;20046;-89
2024/02/28 02:31:07;;;;;;;19.90;8.77;;;2.70;99.90;;;;;;5036155;28;20021;-90
2024/02/28 02:33:33;;;;;;;19.98;8.13;;;2.80;99.90;;;;;;5053583;28;20024;-89
2024/02/28 02:36:00;;;;;;;19.73;9.07;;;2.80;99.90;;;;;;5037590;28;20056;-88
2024/02/28 02:38:25;;;;;;;28.08;11.20;;;2.80;99.90;;;;;;5069000;28;20097;-88
2024/02/28 02:40:52;;;;;;;28.08;12.73;;;2.70;99.90;;;;;;5034581;28;20058;-89
2024/02/28 02:43:17;;;;;;;22.88;11.27;;;2.70;99.90;;;;;;5037073;28;20067;-89
2024/02/28 02:45:44;;;;;;;23.20;10.90;;;2.80;99.90;;;;;;5041573;28;20111;-88
2024/02/28 02:48:10;;;;;;;16.38;7.45;;;2.70;99.90;;;;;;5039392;28;20152;-89
2024/02/28 02:50:36;;;;;;;22.77;9.43;;;2.70;99.90;;;;;;5053858;28;20054;-89
2024/02/28 02:53:02;;;;;;;28.98;14.48;;;2.70;99.90;;;;;;5038719;28;20035;-89
2024/02/28 02:55:28;;;;;;;27.60;12.23;;;2.70;99.90;;;;;;5050118;28;20037;-89
2024/02/28 02:57:54;;;;;;;21.90;10.73;;;2.80;99.90;;;;;;5052473;28;20016;-89
2024/02/28 03:00:21;;;;;;;29.25;10.10;;;2.70;99.90;;;;;;5049037;28;20504;-89
2024/02/28 03:02:46;;;;;;;20.67;9.55;;;2.70;99.90;;;;;;5032601;28;20496;-90
2024/02/28 03:05:12;;;;;;;18.35;9.57;;;2.70;99.90;;;;;;5045135;28;20049;-88
2024/02/28 03:07:38;;;;;;;20.83;10.43;;;2.70;99.90;;;;;;5055743;28;20024;-88
2024/02/28 03:10:04;;;;;;;19.65;8.88;;;2.60;99.90;;;;;;5037654;28;20507;-89
2024/02/28 03:12:30;;;;;;;22.90;9.70;;;2.70;99.90;;;;;;5051072;28;20020;-88
2024/02/28 03:14:56;;;;;;;21.90;9.60;;;2.60;99.90;;;;;;5052831;28;20040;-88
2024/02/28 03:17:22;;;;;;;17.00;8.98;;;2.70;99.90;;;;;;5051887;28;20493;-90
2024/02/28 03:19:48;;;;;;;18.20;8.98;;;2.70;99.90;;;;;;5034876;28;20025;-86
2024/02/28 03:22:14;;;;;;;21.42;9.65;;;2.70;99.90;;;;;;5047564;28;20028;-87
2024/02/28 03:24:39;;;;;;;22.33;9.98;;;2.70;99.90;;;;;;5047335;28;20096;-86
2024/02/28 03:27:05;;;;;;;19.70;9.40;;;2.60;99.90;;;;;;5052711;28;20021;-86
2024/02/28 03:29:31;;;;;;;20.52;9.48;;;2.50;99.90;;;;;;5067930;28;20024;-88
2024/02/28 03:31:58;;;;;;;19.15;9.55;;;2.60;99.90;;;;;;5054084;28;20085;-86
2024/02/28 03:34:24;;;;;;;18.08;8.02;;;2.60;99.90;;;;;;5034660;28;20032;-86
2024/02/28 03:36:50;;;;;;;16.67;8.30;;;2.50;99.90;;;;;;5052666;28;20181;-86
2024/02/28 03:39:15;;;;;;;19.83;9.20;;;2.50;99.90;;;;;;5034463;28;20074;-85
2024/02/28 03:41:41;;;;;;;20.48;9.55;;;2.60;99.90;;;;;;5066088;28;20529;-86
2024/02/28 03:44:07;;;;;;;21.48;9.77;;;2.60;99.90;;;;;;5036289;28;20533;-85
2024/02/28 03:46:33;;;;;;;21.38;9.38;;;2.60;99.90;;;;;;5053260;28;20033;-85
2024/02/28 03:48:58;;;;;;;19.23;9.40;;;2.60;99.90;;;;;;5056989;28;20474;-85
2024/02/28 03:51:24;;;;;;;19.02;9.32;;;2.60;99.90;;;;;;5055207;28;20032;-85
2024/02/28 03:53:50;;;;;;;19.92;9.60;;;2.70;99.90;;;;;;5037482;28;20028;-86
2024/02/28 03:56:42;;;;;;;17.02;8.43;;;2.60;99.90;;;;;;5035959;28;20074;-86
2024/02/28 03:59:07;;;;;;;17.13;8.05;;;2.60;99.90;;;;;;5046380;28;20052;-86
2024/02/28 04:01:33;;;;;;;13.65;6.40;;;2.60;99.90;;;;;;5054836;28;20190;-86
2024/02/28 04:03:59;;;;;;;15.63;8.07;;;2.60;99.90;;;;;;5037685;28;20025;-85
2024/02/28 04:06:25;;;;;;;15.90;7.97;;;2.60;99.90;;;;;;5037643;28;20031;-85
2024/02/28 04:08:50;;;;;;;17.45;8.00;;;2.60;99.90;;;;;;5047822;28;20020;-85
2024/02/28 04:11:16;;;;;;;14.90;7.85;;;2.60;99.90;;;;;;5053226;28;20032;-85
2024/02/28 04:13:42;;;;;;;12.90;6.57;;;2.40;99.90;;;;;;5059450;28;20052;-84
2024/02/28 04:16:09;;;;;;;15.20;8.68;;;2.50;99.90;;;;;;5055904;28;20044;-84
2024/02/28 04:18:35;;;;;;;14.40;7.55;;;2.30;99.90;;;;;;5036216;28;20020;-84
2024/02/28 04:21:01;;;;;;;12.50;7.47;;;2.40;99.90;;;;;;5056640;28;20035;-85
2024/02/28 04:23:26;;;;;;;11.88;6.05;;;2.30;99.90;;;;;;5072724;28;20032;-85
2024/02/28 04:25:52;;;;;;;12.68;7.35;;;2.30;99.90;;;;;;5072907;28;20163;-85
2024/02/28 04:28:17;;;;;;;11.52;6.35;;;2.30;99.90;;;;;;5053369;28;20017;-85
2024/02/28 04:30:43;;;;;;;11.30;6.45;;;2.20;99.90;;;;;;5060330;28;20472;-85
2024/02/28 04:33:09;;;;;;;11.77;7.28;;;2.10;99.90;;;;;;5058902;28;20051;-85
2024/02/28 04:35:35;;;;;;;10.55;5.80;;;2.20;99.90;;;;;;5058069;28;20047;-84
2024/02/28 04:38:00;;;;;;;18.20;7.82;;;2.20;99.90;;;;;;5075190;28;20058;-84
2024/02/28 04:40:26;;;;;;;19.35;8.57;;;2.00;99.90;;;;;;5057915;28;20036;-85
2024/02/28 04:42:52;;;;;;;13.95;7.47;;;2.00;99.90;;;;;;5056532;28;20072;-86
2024/02/28 04:45:18;;;;;;;12.98;7.43;;;2.00;99.90;;;;;;5071886;28;20033;-85
2024/02/28 04:47:43;;;;;;;14.82;7.57;;;2.00;99.90;;;;;;5056128;28;20016;-85
2024/02/28 04:50:10;;;;;;;13.13;7.38;;;2.00;99.90;;;;;;5075772;28;20111;-84
2024/02/28 04:52:35;;;;;;;18.13;7.93;;;2.00;99.90;;;;;;5041865;28;20051;-85
2024/02/28 04:55:01;;;;;;;9.65;6.18;;;2.00;99.90;;;;;;5042955;28;20052;-85
2024/02/28 04:57:27;;;;;;;10.00;5.72;;;2.00;99.90;;;;;;5041031;28;20020;-83
2024/02/28 04:59:53;;;;;;;7.72;4.47;;;1.90;99.90;;;;;;5060824;28;20107;-83
2024/02/28 05:02:21;;;;;;;14.38;6.65;;;2.00;99.90;;;;;;5070952;28;20029;-83
2024/02/28 05:04:47;;;;;;;14.45;6.43;;;1.90;99.90;;;;;;5040345;28;20063;-85
2024/02/28 05:07:13;;;;;;;11.73;7.05;;;1.90;99.90;;;;;;5044995;28;20052;-85
2024/02/28 05:09:38;;;;;;;13.57;6.88;;;1.90;99.90;;;;;;5057670;28;20116;-85
2024/02/28 05:12:04;;;;;;;15.30;8.05;;;1.90;99.90;;;;;;5057412;28;20061;-85
2024/02/28 05:14:30;;;;;;;13.73;7.90;;;1.90;99.90;;;;;;5041985;28;20036;-85
2024/02/28 05:16:55;;;;;;;14.38;8.02;;;1.90;99.90;;;;;;5038010;28;20079;-84
2024/02/28 05:19:21;;;;;;;12.85;7.97;;;2.00;99.90;;;;;;5054811;28;20487;-85
2024/02/28 05:21:48;;;;;;;11.55;6.40;;;2.00;99.90;;;;;;5060840;28;20028;-85
2024/02/28 05:24:14;;;;;;;15.32;8.07;;;2.00;99.90;;;;;;5053550;28;20381;-84
2024/02/28 05:26:40;;;;;;;11.82;6.57;;;1.90;99.90;;;;;;5068064;28;20033;-85
2024/02/28 05:29:06;;;;;;;15.07;7.72;;;2.00;99.90;;;;;;5076275;28;20039;-85
2024/02/28 05:31:32;;;;;;;12.25;7.47;;;2.00;99.90;;;;;;5055409;28;20029;-84
2024/02/28 05:33:59;;;;;;;11.00;6.35;;;2.10;99.90;;;;;;5038938;28;20028;-84
2024/02/28 05:36:26;;;;;;;11.70;6.18;;;2.10;99.90;;;;;;5054460;28;20040;-84
2024/02/28 05:38:53;;;;;;;12.35;6.82;;;1.90;99.90;;;;;;5038462;28;20082;-84
2024/02/28 05:41:19;;;;;;;10.45;6.00;;;1.90;99.90;;;;;;5072668;28;20103;-84
2024/02/28 05:43:45;;;;;;;11.93;6.97;;;1.90;99.90;;;;;;5051657;28;20031;-84
2024/02/28 05:46:11;;;;;;;15.48;7.72;;;1.80;99.90;;;;;;5040185;28;20024;-85
2024/02/28 05:48:37;;;;;;;12.70;7.65;;;1.70;99.90;;;;;;5037874;28;20078;-84
2024/02/28 05:51:03;;;;;;;13.77;8.07;;;1.70;99.90;;;;;;5043555;28;20426;-84
2024/02/28 05:53:35;;;;;;;12.48;7.53;;;1.80;99.90;;;;;;5040553;28;20052;-85
2024/02/28 05:56:02;;;;;;;12.77;7.30;;;1.70;99.90;;;;;;5054170;28;20274;-85
2024/02/28 05:58:28;;;;;;;12.00;6.88;;;1.60;99.90;;;;;;5036205;28;20024;-86
2024/02/28 06:00:54;;;;;;;9.57;5.53;;;1.70;99.90;;;;;;5052066;28;20056;-85
2024/02/28 06:03:19;;;;;;;10.10;6.10;;;1.70;99.90;;;;;;5074363;28;20032;-87
2024/02/28 06:05:45;;;;;;;10.82;6.40;;;1.70;99.90;;;;;;5054629;28;20017;-90
2024/02/28 06:08:11;;;;;;;10.93;6.05;;;1.70;99.90;;;;;;5070861;28;20078;-86
2024/02/28 06:10:36;;;;;;;11.52;5.45;;;1.70;99.90;;;;;;5053380;28;20036;-87
2024/02/28 06:13:02;;;;;;;8.52;5.05;;;1.60;99.90;;;;;;5040327;28;20060;-87
2024/02/28 06:15:28;;;;;;;10.25;5.80;;;1.60;99.90;;;;;;5054700;28;20399;-86
2024/02/28 06:17:57;;;;;;;5.65;2.72;;;1.60;99.90;;;;;;5052161;28;20032;-86
2024/02/28 06:20:22;;;;;;;11.00;6.03;;;1.70;99.90;;;;;;5055022;28;20054;-87
2024/02/28 06:22:48;;;;;;;10.10;5.60;;;1.60;99.90;;;;;;5051436;28;20021;-88
2024/02/28 06:25:19;;;;;;;9.52;5.57;;;1.60;99.90;;;;;;5039167;28;20025;-87
2024/02/28 06:27:44;;;;;;;;;;;1.60;99.90;;;;;;5072816;28;20033;-88
2024/02/28 06:30:12;;;;;;;8.23;4.45;;;1.60;99.90;;;;;;5052215;28;19909;-90
2024/02/28 06:32:38;;;;;;;11.95;6.60;;;1.50;99.90;;;;;;5040504;28;20032;-87
2024/02/28 06:35:04;;;;;;;12.02;6.63;;;1.40;99.90;;;;;;5052617;28;20113;-86
2024/02/28 06:37:30;;;;;;;9.20;5.32;;;1.40;99.90;;;;;;5066188;28;20414;-89
2024/02/28 06:39:56;;;;;;;7.30;4.25;;;1.50;99.90;;;;;;5072411;28;20024;-87
2024/02/28 06:42:21;;;;;;;8.57;5.30;;;1.50;99.90;;;;;;5055023;28;20035;-89
2024/02/28 06:44:47;;;;;;;7.75;4.47;;;1.50;99.90;;;;;;5035842;28;20033;-87
2024/02/28 06:47:13;;;;;;;10.57;5.80;;;1.50;99.90;;;;;;5073055;28;20024;-86
2024/02/28 06:49:38;;;;;;;8.93;5.22;;;1.40;99.90;;;;;;5053525;28;20033;-87
2024/02/28 06:52:05;;;;;;;11.32;6.05;;;1.50;99.90;;;;;;5037455;28;20150;-85
2024/02/28 06:54:31;;;;;;;9.55;5.38;;;1.50;99.90;;;;;;5034432;28;20036;-89
2024/02/28 06:56:57;;;;;;;10.65;6.30;;;1.50;99.90;;;;;;5047872;28;20475;-88
2024/02/28 06:59:23;;;;;;;9.43;5.10;;;1.50;99.90;;;;;;5048821;28;20044;-87
2024/02/28 07:01:48;;;;;;;11.50;6.50;;;1.60;99.90;;;;;;5050813;28;20115;-85
2024/02/28 07:04:14;;;;;;;9.57;5.85;;;1.60;99.90;;;;;;5047243;28;20029;-87
2024/02/28 07:06:40;;;;;;;8.80;4.20;;;1.70;99.90;;;;;;5075808;28;20030;-86
2024/02/28 07:09:08;;;;;;;11.73;6.03;;;1.70;99.90;;;;;;5054425;28;20028;-91
2024/02/28 07:11:34;;;;;;;13.95;7.78;;;1.80;99.90;;;;;;5050432;28;20027;-93
2024/02/28 07:14:03;;;;;;;12.95;7.32;;;1.70;99.90;;;;;;5038846;28;20520;-92
2024/02/28 07:16:29;;;;;;;9.60;5.95;;;1.80;99.90;;;;;;5038078;28;20045;-93
2024/02/28 07:18:55;;;;;;;14.48;7.25;;;1.90;99.90;;;;;;5031458;28;20477;-93
2024/02/28 07:21:21;;;;;;;13.38;7.28;;;1.90;99.90;;;;;;5040324;28;20027;-89
2024/02/28 07:23:46;;;;;;;11.65;7.80;;;2.00;99.90;;;;;;5049912;28;20056;-93
2024/02/28 07:26:16;;;;;;;14.68;9.20;;;2.00;99.90;;;;;;5046901;28;20567;-89
2024/02/28 07:28:42;;;;;;;15.90;9.07;;;2.10;99.90;;;;;;5050761;28;20034;-90
2024/02/28 07:31:17;;;;;;;16.83;8.70;;;2.20;99.90;;;;;;5032031;28;20064;-91
2024/02/28 07:33:43;;;;;;;13.05;8.05;;;2.20;99.90;;;;;;5051009;28;20024;-87
2024/02/28 07:36:10;;;;;;;13.23;6.65;;;2.30;99.90;;;;;;5036592;28;20538;-89
2024/02/28 07:38:36;;;;;;;15.73;8.80;;;2.40;99.90;;;;;;5034899;28;20423;-87
2024/02/28 07:41:01;;;;;;;12.50;6.32;;;2.50;99.90;;;;;;5045997;28;20580;-89
2024/02/28 07:43:28;;;;;;;14.77;9.00;;;2.50;99.90;;;;;;5049503;28;20108;-86
2024/02/28 07:45:54;;;;;;;14.75;8.75;;;2.50;99.90;;;;;;5054331;28;20024;-86
2024/02/28 07:48:19;;;;;;;16.77;8.93;;;2.60;99.90;;;;;;5073368;28;20040;-86
2024/02/28 07:50:46;;;;;;;16.75;9.55;;;2.60;99.90;;;;;;5054531;28;20027;-85
2024/02/28 07:53:15;;;;;;;12.40;6.57;;;2.60;99.90;;;;;;5039339;28;20021;-86
2024/02/28 07:55:40;;;;;;;15.70;8.07;;;2.70;99.90;;;;;;5055749;28;20040;-86
2024/02/28 07:58:06;;;;;;;16.67;8.43;;;2.80;99.90;;;;;;5057597;28;20270;-87
2024/02/28 08:00:35;;;;;;;15.25;9.55;;;2.90;99.90;;;;;;5069359;28;20043;-86
2024/02/28 08:03:01;;;;;;;15.90;8.70;;;2.80;99.90;;;;;;5065610;28;20035;-87
2024/02/28 08:05:27;;;;;;;17.33;10.20;;;2.80;99.90;;;;;;5040037;28;20033;-86
2024/02/28 08:07:52;;;;;;;21.75;11.65;;;2.90;99.90;;;;;;5040589;28;20086;-85
2024/02/28 08:10:18;;;;;;;20.65;11.95;;;2.90;99.90;;;;;;5052349;28;20644;-88
2024/02/28 08:12:44;;;;;;;21.00;12.52;;;3.00;99.90;;;;;;5040121;28;20025;-86
2024/02/28 08:15:10;;;;;;;20.38;11.55;;;3.00;99.90;;;;;;5067751;28;20110;-87
2024/02/28 08:17:36;;;;;;;23.77;12.05;;;3.10;99.90;;;;;;5072906;28;20605;-86
2024/02/28 08:20:04;;;;;;;23.95;13.10;;;3.20;99.90;;;;;;5054650;28;20511;-87
2024/02/28 08:22:31;;;;;;;25.20;13.02;;;3.40;99.90;;;;;;5055414;28;20495;-86
2024/02/28 08:24:56;;;;;;;18.67;10.52;;;3.40;99.90;;;;;;5037563;28;20058;-86
2024/02/28 08:27:23;;;;;;;19.80;10.98;;;3.50;99.90;;;;;;5037909;28;20113;-87
2024/02/28 08:29:50;;;;;;;19.10;9.80;;;3.40;99.90;;;;;;5054079;28;20095;-86
2024/02/28 08:32:16;;;;;;;20.77;12.13;;;3.30;99.90;;;;;;5038339;28;20515;-88
2024/02/28 08:34:49;;;;;;;17.83;10.90;;;3.20;99.90;;;;;;5070200;28;20037;-88
2024/02/28 08:37:15;;;;;;;16.90;9.40;;;3.40;99.90;;;;;;5035872;28;20283;-87
2024/02/28 08:39:40;;;;;;;18.75;9.73;;;3.40;99.90;;;;;;5051741;28;20476;-89
2024/02/28 08:42:06;;;;;;;16.02;8.55;;;3.50;99.90;;;;;;5054785;28;20034;-87
2024/02/28 08:44:32;;;;;;;15.18;9.23;;;3.50;99.90;;;;;;5040060;28;20119;-87
2024/02/28 08:46:57;;;;;;;16.70;8.90;;;3.60;99.90;;;;;;5052967;28;20086;-88
2024/02/28 08:49:23;;;;;;;16.60;8.57;;;3.70;99.90;;;;;;5037726;28;20218;-88
2024/02/28 08:51:48;;;;;;;16.42;9.90;;;3.70;99.90;;;;;;5038789;28;20033;-86
2024/02/28 08:54:14;;;;;;;17.60;9.63;;;3.80;99.90;;;;;;5052558;28;20028;-88
2024/02/28 08:56:40;;;;;;;16.92;8.98;;;3.80;99.90;;;;;;5039648;28;20040;-87
2024/02/28 08:59:05;;;;;;;21.40;11.15;;;3.80;99.90;;;;;;5037318;28;20020;-87
2024/02/28 09:01:33;;;;;;;18.50;10.82;;;3.70;99.90;;;;;;5053870;28;20089;-88
2024/02/28 09:03:59;;;;;;;24.05;13.98;;;3.80;99.90;;;;;;5039795;28;20024;-88
2024/02/28 09:06:25;;;;;;;23.48;13.10;;;3.90;99.90;;;;;;5038030;28;20451;-88
2024/02/28 09:08:51;;;;;;;22.83;13.02;;;3.90;99.90;;;;;;5057683;28;20030;-87
2024/02/28 09:11:16;;;;;;;23.83;14.20;;;4.10;99.90;;;;;;5071021;28;20032;-88
2024/02/28 09:13:42;;;;;;;25.77;14.43;;;4.00;99.90;;;;;;5038335;28;20062;-87
2024/02/28 09:16:08;;;;;;;21.33;12.73;;;4.10;99.90;;;;;;5055149;28;20044;-88
2024/02/28 09:18:34;;;;;;;21.40;12.23;;;4.30;99.90;;;;;;5073579;28;20031;-88
2024/02/28 09:20:59;;;;;;;20.75;12.35;;;4.40;99.90;;;;;;5074102;28;20472;-88
2024/02/28 09:23:25;;;;;;;24.67;15.85;;;4.50;99.90;;;;;;5056866;28;20070;-88
2024/02/28 09:25:51;;;;;;;25.80;15.35;;;4.40;99.90;;;;;;5056389;28;20085;-88
2024/02/28 09:28:17;;;;;;;24.83;15.30;;;4.20;99.90;;;;;;5038969;28;20063;-89
2024/02/28 09:30:43;;;;;;;24.95;15.90;;;4.40;99.90;;;;;;5052722;28;20033;-88
2024/02/28 09:33:09;;;;;;;21.05;12.68;;;4.60;99.90;;;;;;5071960;28;20031;-88
2024/02/28 09:35:36;;;;;;;21.42;12.65;;;4.80;99.90;;;;;;5039830;28;20390;-89
2024/02/28 09:38:02;;;;;;;21.35;12.98;;;4.70;99.90;;;;;;5073078;28;20020;-89
2024/02/28 09:40:28;;;;;;;23.98;14.35;;;4.70;99.90;;;;;;5053510;28;20031;-90
2024/02/28 09:43:03;;;;;;;21.17;13.32;;;4.60;99.90;;;;;;5052179;28;20016;-89
2024/02/28 09:45:32;;;;;;;25.17;15.50;;;4.60;99.90;;;;;;5051506;28;20032;-89
2024/02/28 09:48:00;;;;;;;21.83;13.43;;;4.60;99.90;;;;;;5055170;28;20035;-89
2024/02/28 09:50:28;;;;;;;21.58;13.45;;;4.70;99.90;;;;;;5038329;28;20502;-89
2024/02/28 09:52:54;;;;;;;17.80;11.20;;;4.70;99.90;;;;;;5052435;28;20124;-89
2024/02/28 09:55:20;;;;;;;16.10;10.50;;;4.80;99.90;;;;;;5070008;28;20460;-89
2024/02/28 09:57:51;;;;;;;21.13;12.65;;;5.10;99.90;;;;;;5037733;28;20407;-89
2024/02/28 10:00:20;;;;;;;22.75;13.73;;;5.30;99.90;;;;;;5052790;28;20516;-89
2024/02/28 10:02:49;;;;;;;25.40;14.30;;;5.30;99.90;;;;;;5069593;28;20029;-89
2024/02/28 10:05:15;;;;;;;22.07;13.97;;;5.40;99.90;;;;;;5052980;28;20024;-89
2024/02/28 10:07:42;;;;;;;18.73;12.05;;;5.60;99.90;;;;;;5052716;28;20384;-90
2024/02/28 10:10:08;;;;;;;18.10;10.98;;;5.70;99.90;;;;;;5053475;28;20024;-90
2024/02/28 10:12:34;;;;;;;19.38;11.75;;;5.90;99.90;;;;;;5039448;28;20097;-89
2024/02/28 10:15:03;;;;;;;23.60;13.20;;;6.00;99.90;;;;;;5051230;28;20438;-88
2024/02/28 10:17:29;;;;;;;22.83;13.97;;;6.10;99.90;;;;;;5036576;28;20473;-89
2024/02/28 10:19:54;;;;;;;21.30;13.07;;;5.90;99.90;;;;;;5069256;28;20078;-88
2024/02/28 10:22:20;;;;;;;22.40;15.02;;;5.90;99.90;;;;;;5053382;28;20043;-88
2024/02/28 10:24:46;;;;;;;24.58;13.73;;;5.70;99.90;;;;;;5035762;28;20389;-88
2024/02/28 10:27:16;;;;;;;20.52;12.63;;;5.70;99.90;;;;;;5040169;28;20062;-88
2024/02/28 10:29:44;;;;;;;25.45;15.32;;;5.90;99.90;;;;;;5052022;28;20136;-89
2024/02/28 10:32:10;;;;;;;20.98;13.55;;;5.90;99.90;;;;;;5036609;28;20044;-90
2024/02/28 10:34:37;;;;;;;18.75;12.23;;;6.00;99.90;;;;;;5053526;28;20059;-88
2024/02/28 10:37:05;;;;;;;23.35;13.85;;;6.20;99.90;;;;;;5055792;28;20101;-88
2024/02/28 10:39:32;;;;;;;30.33;17.92;;;6.30;99.90;;;;;;5051709;28;20035;-88
2024/02/28 10:41:59;;;;;;;27.00;16.58;;;6.40;99.90;;;;;;5071721;28;20119;-87
2024/02/28 10:44:27;;;;;;;25.90;16.13;;;6.50;99.90;;;;;;5052025;28;20031;-87
2024/02/28 10:46:53;;;;;;;20.33;13.32;;;6.50;99.90;;;;;;5033985;28;20159;-87
2024/02/28 10:49:19;;;;;;;26.92;15.90;;;6.60;99.90;;;;;;5069687;28;20034;-86
2024/02/28 10:51:50;;;;;;;25.33;16.98;;;6.70;99.90;;;;;;5070355;28;20111;-87
2024/02/28 10:54:20;;;;;;;26.88;17.23;;;6.60;99.90;;;;;;5033996;28;20058;-89
2024/02/28 10:56:46;;;;;;;31.10;19.73;;;6.40;99.90;;;;;;5036058;28;20044;-86
2024/02/28 10:59:12;;;;;;;30.77;18.30;;;6.40;99.90;;;;;;5038297;28;20024;-85
2024/02/28 11:01:42;;;;;;;26.48;17.25;;;6.40;99.90;;;;;;5054437;28;20028;-85
2024/02/28 11:04:08;;;;;;;34.83;22.23;;;6.60;99.90;;;;;;5036697;28;20054;-86
2024/02/28 11:06:34;;;;;;;31.65;19.27;;;6.50;99.90;;;;;;5050309;28;20106;-86
2024/02/28 11:09:03;;;;;;;34.22;22.10;;;6.70;99.90;;;;;;5033512;28;20446;-86
2024/02/28 11:11:34;;;;;;;32.13;20.37;;;6.70;99.90;;;;;;5053456;28;20152;-85
2024/02/28 11:14:00;;;;;;;28.02;16.90;;;6.80;99.90;;;;;;5038207;28;20059;-86
2024/02/28 11:16:28;;;;;;;30.00;19.60;;;6.90;99.90;;;;;;5054131;28;20036;-88
2024/02/28 11:18:54;;;;;;;35.97;21.65;;;6.70;99.90;;;;;;5049203;28;20024;-86
2024/02/28 11:21:19;;;;;;;37.65;22.55;;;6.70;99.90;;;;;;5050522;28;20392;-85
2024/02/28 11:23:48;;;;;;;36.70;23.05;;;6.80;99.90;;;;;;5052163;28;20040;-88
2024/02/28 11:26:14;;;;;;;34.75;23.02;;;6.80;99.90;;;;;;5054313;28;20115;-84
2024/02/28 11:28:40;;;;;;;34.97;21.45;;;6.90;99.90;;;;;;5035996;28;20038;-86
2024/02/28 11:31:06;;;;;;;31.13;20.10;;;6.90;99.90;;;;;;5069486;28;20020;-85
2024/02/28 11:33:34;;;;;;;30.98;18.92;;;7.10;99.90;;;;;;5052984;28;20040;-86
2024/02/28 11:36:00;;;;;;;32.05;19.67;;;7.30;99.90;;;;;;5033234;28;20036;-87
2024/02/28 11:38:26;;;;;;;28.55;17.15;;;7.30;99.90;;;;;;5051353;28;20120;-86
2024/02/28 11:40:52;;;;;;;26.85;16.63;;;7.30;99.90;;;;;;5068672;28;20367;-85
2024/02/28 11:43:18;;;;;;;26.30;16.65;;;7.40;99.90;;;;;;5051112;28;20036;-85
2024/02/28 11:45:46;;;;;;;28.80;17.83;;;7.40;99.90;;;;;;5054873;28;20032;-85
2024/02/28 11:48:13;;;;;;;24.80;16.40;;;7.30;99.90;;;;;;5037885;28;20029;-86
2024/02/28 11:50:40;;;;;;;25.10;14.15;;;7.30;99.90;;;;;;5053574;28;20033;-86
2024/02/28 11:53:07;;;;;;;22.58;12.98;;;7.40;99.90;;;;;;5050925;28;20078;-86
2024/02/28 11:55:33;;;;;;;25.73;15.40;;;7.60;99.90;;;;;;5066273;28;20044;-86
2024/02/28 11:57:58;;;;;;;27.25;17.25;;;7.40;99.90;;;;;;5065719;28;20032;-85
2024/02/28 12:00:24;;;;;;;25.58;17.35;;;7.50;99.90;;;;;;5051713;28;20474;-87
2024/02/28 12:02:50;;;;;;;23.83;15.75;;;7.60;99.90;;;;;;5050620;28;20512;-86
2024/02/28 12:05:16;;;;;;;22.15;13.77;;;7.70;99.90;;;;;;5052401;28;20025;-88
2024/02/28 12:07:42;;;;;;;23.10;15.27;;;7.80;99.90;;;;;;5050500;28;20062;-85
2024/02/28 12:10:09;;;;;;;24.23;14.27;;;7.80;99.90;;;;;;5050740;28;20036;-86
2024/02/28 12:12:34;;;;;;;25.10;16.92;;;7.90;99.90;;;;;;5069168;28;20460;-85
2024/02/28 12:15:00;;;;;;;22.58;13.48;;;7.90;99.90;;;;;;5048346;28;20072;-85
2024/02/28 12:17:27;;;;;;;29.17;18.95;;;7.90;99.90;;;;;;5053114;28;20021;-85
2024/02/28 12:19:53;;;;;;;35.65;18.15;;;7.90;99.90;;;;;;5051988;28;20032;-86
2024/02/28 12:22:18;;;;;;;30.77;20.23;;;7.80;99.90;;;;;;5070775;28;20388;-85
2024/02/28 12:24:44;;;;;;;22.90;14.60;;;7.90;99.90;;;;;;5034157;28;20032;-86
2024/02/28 12:27:10;;;;;;;21.20;13.63;;;8.10;99.90;;;;;;5051936;28;20016;-86
2024/02/28 12:29:36;;;;;;;22.02;14.60;;;7.90;99.90;;;;;;5055594;28;20041;-85
2024/02/28 12:32:02;;;;;;;23.90;15.38;;;7.90;99.90;;;;;;5063103;28;20385;-85
2024/02/28 12:34:27;;;;;;;24.20;15.20;;;7.90;99.90;;;;;;5050168;28;20024;-85
2024/02/28 12:36:53;;;;;;;20.48;13.60;;;8.10;99.90;;;;;;5060871;28;20399;-87
2024/02/28 12:39:19;;;;;;;24.45;14.27;;;8.20;99.90;;;;;;5038465;28;20560;-85